KPGA/PGA METAR and TAF weather

Enter ICAO airport designator
Station Type Date Time Source
KPGA METAR 2020/09/21 23:53 UTC NOAA

KPGA 212353Z AUTO 10SM CLR 32/01 A3003 RMK AO2 SLP102 T03220006 10333 20278 56015 TSNO


Station Type Date Time Source
KPGA Decoded METAR 2020/09/21 23:53 UTC NOAA

PAGE MUNICIPAL AIRPORT, AZ, United States (KPGA) 36-56N 111-27W 1307M
Sep 21, 2020 - 07:53 PM EDT / 2020.09.21 2353 UTC
Visibility: 10 mile(s):0
Sky conditions: clear
Temperature: 90.0 F (32.2 C)
Dew Point: 33.1 F (0.6 C)
Relative Humidity: 13%
Pressure (altimeter): 30.03 in. Hg (1016 hPa)
Pressure tendency: 0.04 inches (1.5 hPa) lower than three hours ago
ob: KPGA 212353Z AUTO 10SM CLR 32/01 A3003 RMK AO2 SLP102 T03220006 10333 20278 56015 TSNO
cycle: 0

Station Type Date Time Source
KPGA TAF 2020/09/21 18:22 UTC NOAA

TAF KPGA 211720Z 2118/2218 VRB06KT P6SM SCT120

Example: see airport list